createdAt,value
2018-04-20T00:00:00.330Z,0.00
2018-04-20T00:01:00.045Z,0.00
2018-04-20T00:02:00.011Z,0.00
2018-04-20T00:02:59.908Z,0.00
2018-04-20T00:03:59.927Z,0.00
2018-04-20T00:04:59.723Z,0.00
2018-04-20T00:05:59.732Z,0.00
2018-04-20T00:06:59.635Z,0.00
2018-04-20T00:07:59.574Z,0.00
2018-04-20T00:08:59.423Z,0.00
2018-04-20T00:09:59.449Z,0.00
2018-04-20T00:10:59.261Z,0.00
2018-04-20T00:11:59.265Z,0.00
2018-04-20T00:12:59.124Z,0.00
2018-04-20T00:13:59.072Z,0.00
2018-04-20T00:14:58.958Z,0.00
2018-04-20T00:15:58.971Z,0.00
2018-04-20T00:16:58.811Z,0.00
2018-04-20T00:17:58.824Z,0.00
2018-04-20T00:18:58.648Z,0.00
2018-04-20T00:19:58.694Z,0.00
2018-04-20T00:20:58.498Z,0.00
2018-04-20T00:21:58.512Z,0.00
2018-04-20T00:22:58.373Z,0.00
2018-04-20T00:23:58.362Z,0.00
2018-04-20T00:24:58.190Z,0.00
2018-04-20T00:25:58.234Z,0.00
2018-04-20T00:26:58.036Z,0.00
2018-04-20T00:27:58.028Z,0.00
2018-04-20T00:28:57.899Z,0.00
2018-04-20T00:29:57.838Z,0.00
2018-04-20T00:30:57.716Z,0.00
2018-04-20T00:31:57.758Z,0.00
2018-04-20T00:32:57.650Z,0.00
2018-04-20T00:33:57.591Z,0.00
2018-04-20T00:34:57.415Z,0.00
2018-04-20T00:35:57.474Z,0.00
2018-04-20T00:36:57.251Z,0.00
2018-04-20T00:37:57.280Z,0.00
2018-04-20T00:38:57.147Z,0.00
2018-04-20T00:39:57.090Z,0.00
2018-04-20T00:40:56.953Z,0.00
2018-04-20T00:41:56.993Z,0.00
2018-04-20T00:42:56.808Z,0.00
2018-04-20T00:43:56.803Z,0.00
2018-04-20T00:44:56.667Z,0.00
2018-04-20T00:45:56.617Z,0.00
2018-04-20T00:46:56.482Z,0.00
2018-04-20T00:47:56.529Z,0.00
2018-04-20T00:48:56.331Z,0.00
2018-04-20T00:49:56.363Z,0.00
2018-04-20T00:50:56.177Z,0.00
2018-04-20T00:51:56.139Z,0.00
2018-04-20T00:52:56.037Z,0.00
2018-04-20T00:53:56.055Z,0.00
2018-04-20T00:54:55.894Z,0.00
2018-04-20T00:55:55.859Z,0.00
2018-04-20T00:56:55.706Z,0.00
2018-04-20T00:57:55.683Z,0.00
2018-04-20T00:58:55.556Z,0.00
2018-04-20T00:59:55.615Z,0.00
2018-04-20T01:00:55.419Z,0.00
2018-04-20T01:01:55.392Z,0.00
2018-04-20T01:02:55.273Z,0.00
2018-04-20T01:03:55.515Z,0.00
2018-04-20T01:04:55.118Z,0.00
2018-04-20T01:05:55.757Z,0.00
2018-04-20T01:06:54.956Z,0.00
2018-04-20T01:07:54.915Z,0.00
2018-04-20T01:08:54.799Z,0.00
2018-04-20T01:09:54.867Z,0.00
2018-04-20T01:10:54.646Z,0.00
2018-04-20T01:11:54.733Z,0.00
2018-04-20T01:12:54.480Z,0.00
2018-04-20T01:13:54.442Z,0.00
2018-04-20T01:14:54.333Z,0.00
2018-04-20T01:15:54.391Z,0.00
2018-04-20T01:16:54.195Z,0.00
2018-04-20T01:17:54.200Z,0.00
2018-04-20T01:18:54.009Z,0.00
2018-04-20T01:19:53.967Z,0.00
2018-04-20T01:20:53.869Z,0.00
2018-04-20T01:21:53.924Z,0.00
2018-04-20T01:22:53.705Z,0.00
2018-04-20T01:23:53.694Z,0.00
2018-04-20T01:24:53.550Z,0.00
2018-04-20T01:25:53.553Z,0.00
2018-04-20T01:26:53.398Z,0.00
2018-04-20T01:27:53.416Z,0.00
2018-04-20T01:28:53.234Z,0.00
2018-04-20T01:29:53.215Z,0.00
2018-04-20T01:30:53.107Z,0.00
2018-04-20T01:31:53.137Z,0.00
2018-04-20T01:32:52.926Z,0.00
2018-04-20T01:33:52.951Z,0.00
2018-04-20T01:34:52.779Z,0.00
2018-04-20T01:35:52.771Z,0.00
2018-04-20T01:36:52.628Z,0.00
2018-04-20T01:37:52.591Z,0.00
2018-04-20T01:38:52.462Z,0.00
2018-04-20T01:39:52.459Z,0.00
2018-04-20T01:40:52.306Z,0.00
2018-04-20T01:41:52.307Z,0.00
2018-04-20T01:42:52.170Z,0.00
2018-04-20T01:43:52.181Z,0.00
2018-04-20T01:44:51.986Z,0.00
2018-04-20T01:45:51.993Z,0.00
2018-04-20T01:46:51.839Z,0.00
2018-04-20T01:47:51.947Z,0.00
2018-04-20T01:48:51.684Z,0.00
2018-04-20T01:49:51.719Z,0.00
2018-04-20T01:50:51.651Z,0.00
2018-04-20T01:51:51.518Z,0.00
2018-04-20T01:52:51.375Z,0.00
2018-04-20T01:53:52.089Z,0.00
2018-04-20T01:54:51.215Z,0.00
2018-04-20T01:55:51.237Z,0.00
2018-04-20T01:56:51.058Z,0.00
2018-04-20T01:57:51.047Z,0.00
2018-04-20T01:58:50.926Z,0.00
2018-04-20T01:59:51.024Z,0.00
2018-04-20T02:00:50.764Z,0.00
2018-04-20T02:01:50.763Z,0.00
2018-04-20T02:02:50.617Z,0.00
2018-04-20T02:03:50.574Z,0.00
2018-04-20T02:04:50.445Z,0.00
2018-04-20T02:05:50.484Z,0.00
2018-04-20T02:06:50.286Z,0.00
2018-04-20T02:07:50.331Z,0.00
2018-04-20T02:08:50.129Z,0.00
2018-04-20T02:09:50.102Z,0.00
2018-04-20T02:10:49.979Z,0.00
2018-04-20T02:11:50.019Z,0.00
2018-04-20T02:12:49.841Z,0.00
2018-04-20T02:13:49.926Z,0.00
2018-04-20T02:14:49.687Z,0.00
2018-04-20T02:15:49.625Z,0.00
2018-04-20T02:16:49.506Z,0.00
2018-04-20T02:17:49.576Z,0.00
2018-04-20T02:18:49.354Z,0.00
2018-04-20T02:19:49.351Z,0.00
2018-04-20T02:20:49.198Z,0.00
2018-04-20T02:21:49.192Z,0.00
2018-04-20T02:22:49.045Z,0.00
2018-04-20T02:23:49.091Z,0.00
2018-04-20T02:24:48.877Z,0.00
2018-04-20T02:25:48.879Z,0.00
2018-04-20T02:26:48.850Z,0.00
2018-04-20T02:27:48.798Z,0.00
2018-04-20T02:28:48.597Z,0.00
2018-04-20T02:29:48.609Z,0.00
2018-04-20T02:30:48.424Z,0.00
2018-04-20T02:31:48.408Z,0.00
2018-04-20T02:32:48.286Z,0.00
2018-04-20T02:33:48.241Z,0.00
2018-04-20T02:34:48.113Z,0.00
2018-04-20T02:35:48.123Z,0.00
2018-04-20T02:36:47.949Z,0.00
2018-04-20T02:37:47.927Z,0.00
2018-04-20T02:38:47.814Z,0.00
2018-04-20T02:39:47.845Z,0.00
2018-04-20T02:40:47.647Z,0.00
2018-04-20T02:41:47.653Z,0.00
2018-04-20T02:42:47.473Z,0.00
2018-04-20T02:43:47.500Z,0.00
2018-04-20T02:44:47.357Z,0.00
2018-04-20T02:45:47.364Z,0.00
2018-04-20T02:46:47.175Z,0.00
2018-04-20T02:47:47.193Z,0.00
2018-04-20T02:48:47.018Z,0.00
2018-04-20T02:49:47.119Z,0.00
2018-04-20T02:50:46.860Z,0.00
2018-04-20T02:51:46.898Z,0.00
2018-04-20T02:52:46.714Z,0.00
2018-04-20T02:53:46.706Z,0.00
2018-04-20T02:54:46.573Z,0.00
2018-04-20T02:55:46.527Z,0.00
2018-04-20T02:56:46.398Z,0.00
2018-04-20T02:57:46.426Z,0.00
2018-04-20T02:58:46.234Z,0.00
2018-04-20T02:59:46.263Z,0.00
2018-04-20T03:00:46.085Z,0.00
2018-04-20T03:01:46.056Z,0.00
2018-04-20T03:02:45.921Z,0.00
2018-04-20T03:03:45.958Z,0.00
2018-04-20T03:04:45.762Z,0.00
2018-04-20T03:05:45.836Z,0.00
2018-04-20T03:06:45.607Z,0.00
2018-04-20T03:07:45.568Z,0.00
2018-04-20T03:08:45.465Z,0.00
2018-04-20T03:09:45.474Z,0.00
2018-04-20T03:10:45.330Z,0.00
2018-04-20T03:11:45.291Z,0.00
2018-04-20T03:12:45.140Z,0.00
2018-04-20T03:13:45.204Z,0.00
2018-04-20T03:14:44.982Z,0.00
2018-04-20T03:15:45.007Z,0.00
2018-04-20T03:16:44.852Z,0.00
2018-04-20T03:17:44.816Z,0.00
2018-04-20T03:18:44.687Z,0.00
2018-04-20T03:19:44.727Z,0.00
2018-04-20T03:20:44.520Z,0.00
2018-04-20T03:21:44.570Z,0.00
2018-04-20T03:22:44.372Z,0.00
2018-04-20T03:23:44.344Z,0.00
2018-04-20T03:24:44.211Z,0.00
2018-04-20T03:25:44.266Z,0.00
2018-04-20T03:26:44.071Z,0.00
2018-04-20T03:27:44.059Z,0.00
2018-04-20T03:28:44.605Z,0.00
2018-04-20T03:29:43.874Z,0.00
2018-04-20T03:30:43.758Z,0.00
2018-04-20T03:31:43.739Z,0.00
2018-04-20T03:32:43.576Z,0.00
2018-04-20T03:33:43.590Z,0.00
2018-04-20T03:34:43.438Z,0.00
2018-04-20T03:35:43.398Z,0.00
2018-04-20T03:36:43.291Z,0.00
2018-04-20T03:37:43.302Z,0.00
2018-04-20T03:38:43.124Z,0.00
2018-04-20T03:39:43.115Z,0.00
2018-04-20T03:40:42.966Z,0.00
2018-04-20T03:41:42.972Z,0.00
2018-04-20T03:42:42.822Z,0.00
2018-04-20T03:43:42.836Z,0.00
2018-04-20T03:44:42.646Z,0.00
2018-04-20T03:45:42.649Z,0.00
2018-04-20T03:46:42.497Z,0.00
2018-04-20T03:47:42.492Z,0.00
2018-04-20T03:48:42.336Z,0.00
2018-04-20T03:49:42.366Z,0.00
2018-04-20T03:50:42.185Z,0.00
2018-04-20T03:51:42.175Z,0.00
2018-04-20T03:52:42.045Z,0.00
2018-04-20T03:53:41.975Z,0.00
2018-04-20T03:54:41.886Z,0.00
2018-04-20T03:55:41.902Z,0.00
2018-04-20T03:56:41.719Z,0.00
2018-04-20T03:57:41.743Z,0.00
2018-04-20T03:58:41.565Z,4.00
2018-04-20T03:59:41.516Z,4.00
2018-04-20T04:00:41.412Z,0.00
2018-04-20T04:01:41.425Z,4.00
2018-04-20T04:02:41.278Z,4.00
2018-04-20T04:03:41.225Z,4.00
2018-04-20T04:04:41.167Z,4.00
2018-04-20T04:05:41.142Z,8.00
2018-04-20T04:06:40.950Z,8.00
2018-04-20T04:07:41.001Z,8.00
2018-04-20T04:08:40.797Z,8.00
2018-04-20T04:09:40.762Z,12.00
2018-04-20T04:10:40.622Z,12.00
2018-04-20T04:11:40.666Z,16.00
2018-04-20T04:12:40.481Z,16.00
2018-04-20T04:13:40.481Z,20.00
2018-04-20T04:14:40.305Z,24.00
2018-04-20T04:15:40.296Z,24.00
2018-04-20T04:16:40.154Z,32.00
2018-04-20T04:17:40.193Z,36.00
2018-04-20T04:18:40.018Z,36.00
2018-04-20T04:19:40.015Z,44.00
2018-04-20T04:20:39.844Z,44.00
2018-04-20T04:21:39.818Z,52.00
2018-04-20T04:22:39.683Z,60.00
2018-04-20T04:23:39.657Z,64.00
2018-04-20T04:24:39.527Z,68.00
2018-04-20T04:25:39.539Z,76.00
2018-04-20T04:26:39.375Z,80.00
2018-04-20T04:27:39.342Z,88.00
2018-04-20T04:28:39.230Z,96.00
2018-04-20T04:29:39.248Z,104.00
2018-04-20T04:30:39.071Z,112.00
2018-04-20T04:31:39.066Z,124.00
2018-04-20T04:32:38.907Z,136.00
2018-04-20T04:33:38.914Z,144.00
2018-04-20T04:34:38.744Z,160.00
2018-04-20T04:35:38.785Z,168.00
2018-04-20T04:36:38.592Z,184.00
2018-04-20T04:37:38.594Z,196.00
2018-04-20T04:38:38.459Z,212.00
2018-04-20T04:39:38.390Z,228.00
2018-04-20T04:40:38.310Z,240.00
2018-04-20T04:41:38.309Z,256.00
2018-04-20T04:42:38.123Z,268.00
2018-04-20T04:43:38.121Z,280.00
2018-04-20T04:44:37.986Z,292.00
2018-04-20T04:45:37.929Z,304.00
2018-04-20T04:46:37.812Z,320.00
2018-04-20T04:47:37.831Z,336.00
2018-04-20T04:48:37.646Z,356.00
2018-04-20T04:49:37.679Z,372.00
2018-04-20T04:50:37.508Z,392.00
2018-04-20T04:51:37.455Z,412.00
2018-04-20T04:52:37.339Z,440.00
2018-04-20T04:53:37.364Z,464.00
2018-04-20T04:54:37.196Z,492.00
2018-04-20T04:55:37.163Z,520.00
2018-04-20T04:56:37.017Z,544.00
2018-04-20T04:57:37.083Z,576.00
2018-04-20T04:58:36.867Z,608.00
2018-04-20T04:59:36.940Z,636.00
2018-04-20T05:00:36.717Z,664.00
2018-04-20T05:01:36.701Z,688.00
2018-04-20T05:02:36.544Z,716.00
2018-04-20T05:03:36.609Z,744.00
2018-04-20T05:04:36.420Z,772.00
2018-04-20T05:05:36.414Z,804.00
2018-04-20T05:06:36.343Z,840.00
2018-04-20T05:07:36.235Z,880.00
2018-04-20T05:08:36.095Z,916.00
2018-04-20T05:09:36.216Z,948.00
2018-04-20T05:10:35.933Z,984.00
2018-04-20T05:11:35.953Z,1012.00
2018-04-20T05:12:35.786Z,1040.00
2018-04-20T05:13:35.759Z,1072.00
2018-04-20T05:14:35.647Z,1104.00
2018-04-20T05:15:35.604Z,1132.00
2018-04-20T05:16:35.478Z,1164.00
2018-04-20T05:17:35.483Z,1192.00
2018-04-20T05:18:35.312Z,1224.00
2018-04-20T05:19:35.417Z,1256.00
2018-04-20T05:20:35.153Z,1284.00
2018-04-20T05:21:35.191Z,1312.00
2018-04-20T05:22:35.015Z,1344.00
2018-04-20T05:23:35.007Z,1368.00
2018-04-20T05:24:34.856Z,1392.00
2018-04-20T05:25:35.862Z,1416.00
2018-04-20T05:26:34.685Z,1440.00
2018-04-20T05:27:34.731Z,1460.00
2018-04-20T05:28:34.527Z,1484.00
2018-04-20T05:29:34.540Z,1508.00
2018-04-20T05:30:34.394Z,1528.00
2018-04-20T05:31:34.348Z,1548.00
2018-04-20T05:32:34.217Z,1572.00
2018-04-20T05:33:34.265Z,1592.00
2018-04-20T05:34:34.063Z,1612.00
2018-04-20T05:35:34.090Z,1628.00
2018-04-20T05:36:33.892Z,1644.00
2018-04-20T05:37:33.862Z,1660.00
2018-04-20T05:38:33.752Z,1672.00
2018-04-20T05:39:33.776Z,1684.00
2018-04-20T05:40:33.604Z,1696.00
2018-04-20T05:41:33.596Z,1712.00
2018-04-20T05:42:33.493Z,1728.00
2018-04-20T05:43:33.398Z,1748.00
2018-04-20T05:44:33.280Z,1764.00
2018-04-20T05:45:33.362Z,1784.00
2018-04-20T05:46:33.147Z,1800.00
2018-04-20T05:47:33.102Z,1816.00
2018-04-20T05:48:32.995Z,1832.00
2018-04-20T05:49:33.020Z,1852.00
2018-04-20T05:50:32.827Z,1868.00
2018-04-20T05:51:32.877Z,1888.00
2018-04-20T05:52:32.651Z,1904.00
2018-04-20T05:53:32.631Z,1924.00
2018-04-20T05:54:32.499Z,1944.00
2018-04-20T05:55:32.544Z,1976.00
2018-04-20T05:56:32.353Z,2028.00
2018-04-20T05:57:32.364Z,2100.00
2018-04-20T05:58:32.179Z,2192.00
2018-04-20T05:59:32.166Z,2316.00
2018-04-20T06:00:32.030Z,2444.00
2018-04-20T06:01:32.014Z,2584.00
2018-04-20T06:02:31.867Z,2752.00
2018-04-20T06:03:31.881Z,2912.00
2018-04-20T06:04:31.729Z,3060.00
2018-04-20T06:05:31.693Z,3148.00
2018-04-20T06:06:31.575Z,3212.00
2018-04-20T06:07:31.524Z,3428.00
2018-04-20T06:08:31.414Z,3596.00
2018-04-20T06:09:31.414Z,3824.00
2018-04-20T06:10:31.245Z,4128.00
2018-04-20T06:11:31.220Z,4352.00
2018-04-20T06:12:31.124Z,4408.00
2018-04-20T06:13:31.126Z,4572.00
2018-04-20T06:14:30.931Z,4632.00
2018-04-20T06:15:30.942Z,4436.00
2018-04-20T06:16:30.787Z,4084.00
2018-04-20T06:17:30.802Z,4244.00
2018-04-20T06:18:30.644Z,4628.00
2018-04-20T06:19:30.661Z,4500.00
2018-04-20T06:20:30.462Z,4448.00
2018-04-20T06:21:30.564Z,4792.00
2018-04-20T06:22:30.358Z,5196.00
2018-04-20T06:23:30.277Z,5368.00
2018-04-20T06:24:30.176Z,5504.00
2018-04-20T06:25:30.196Z,5612.00
2018-04-20T06:26:30.016Z,5688.00
2018-04-20T06:27:30.652Z,5748.00
2018-04-20T06:28:29.888Z,5788.00
2018-04-20T06:29:30.310Z,5844.00
2018-04-20T06:30:29.704Z,5944.00
2018-04-20T06:31:29.720Z,5884.00
2018-04-20T06:32:29.555Z,5888.00
2018-04-20T06:33:29.570Z,5816.00
2018-04-20T06:34:29.405Z,5932.00
2018-04-20T06:35:29.429Z,6120.00
2018-04-20T06:36:29.247Z,6256.00
2018-04-20T06:37:29.240Z,6348.00
2018-04-20T06:38:29.117Z,6376.00
2018-04-20T06:39:29.091Z,6476.00
2018-04-20T06:40:28.933Z,6544.00
2018-04-20T06:41:28.960Z,6668.00
2018-04-20T06:42:28.798Z,6684.00
2018-04-20T06:43:28.787Z,6708.00
2018-04-20T06:44:28.691Z,6876.00
2018-04-20T06:45:28.684Z,6884.00
2018-04-20T06:46:28.495Z,6936.00
2018-04-20T06:47:28.490Z,7068.00
2018-04-20T06:48:28.348Z,7004.00
2018-04-20T06:49:28.347Z,7120.00
2018-04-20T06:50:28.217Z,7164.00
2018-04-20T06:51:28.205Z,7260.00
2018-04-20T06:52:28.037Z,7304.00
2018-04-20T06:53:28.012Z,7596.00
2018-04-20T06:54:27.884Z,7696.00
2018-04-20T06:55:27.872Z,7864.00
2018-04-20T06:56:27.728Z,7944.00
2018-04-20T06:57:27.740Z,8032.00
2018-04-20T06:58:27.595Z,8012.00
2018-04-20T06:59:27.587Z,8232.00
2018-04-20T07:00:27.528Z,7888.00
2018-04-20T07:01:27.471Z,8260.00
2018-04-20T07:02:27.280Z,8732.00
2018-04-20T07:03:27.275Z,8788.00
2018-04-20T07:04:27.133Z,8904.00
2018-04-20T07:05:27.114Z,8988.00
2018-04-20T07:06:26.991Z,9136.00
2018-04-20T07:07:26.983Z,9300.00
2018-04-20T07:08:26.834Z,9540.00
2018-04-20T07:09:26.790Z,9764.00
2018-04-20T07:10:26.702Z,9720.00
2018-04-20T07:11:26.712Z,9548.00
2018-04-20T07:12:26.537Z,9912.00
2018-04-20T07:13:26.524Z,10132.00
2018-04-20T07:14:26.391Z,10140.00
2018-04-20T07:15:26.458Z,10136.00
2018-04-20T07:16:26.252Z,10064.00
2018-04-20T07:17:26.243Z,10144.00
2018-04-20T07:18:26.109Z,10084.00
2018-04-20T07:19:26.148Z,10216.00
2018-04-20T07:20:25.949Z,10168.00
2018-04-20T07:21:26.017Z,10444.00
2018-04-20T07:22:25.804Z,10660.00
2018-04-20T07:25:08.136Z,10512.00
2018-04-20T07:26:08.092Z,10812.00
2018-04-20T07:27:07.969Z,11124.00
2018-04-20T07:28:07.970Z,11300.00
2018-04-20T07:29:07.819Z,11576.00
2018-04-20T07:30:07.799Z,11768.00
2018-04-20T07:31:07.700Z,11908.00
2018-04-20T07:32:07.691Z,12012.00
2018-04-20T07:33:07.536Z,11972.00
2018-04-20T07:34:07.553Z,12012.00
2018-04-20T07:35:07.375Z,12112.00
2018-04-20T07:36:07.451Z,12264.00
2018-04-20T07:37:07.287Z,12392.00
2018-04-20T07:38:07.228Z,12552.00
2018-04-20T07:39:07.094Z,12776.00
2018-04-20T07:40:07.161Z,12848.00
2018-04-20T07:41:06.959Z,13028.00
2018-04-20T07:42:07.001Z,13012.00
2018-04-20T07:43:06.863Z,13324.00
2018-04-20T07:44:06.860Z,13436.00
2018-04-20T07:45:06.668Z,13944.00
2018-04-20T07:46:06.666Z,14652.00
2018-04-20T07:47:06.549Z,15808.00
2018-04-20T07:48:06.571Z,17248.00
2018-04-20T07:49:06.371Z,18464.00
2018-04-20T07:50:06.372Z,19200.00
2018-04-20T07:51:06.321Z,19872.00
2018-04-20T07:52:06.285Z,20096.00
2018-04-20T07:53:06.118Z,19168.00
2018-04-20T07:54:06.102Z,17856.00
2018-04-20T07:55:05.958Z,16160.00
2018-04-20T07:56:05.904Z,14072.00
2018-04-20T07:57:05.794Z,12928.00
2018-04-20T07:58:05.840Z,12428.00
2018-04-20T07:59:05.663Z,12284.00
2018-04-20T08:00:05.629Z,12256.00
2018-04-20T08:01:05.529Z,12244.00
2018-04-20T08:02:05.546Z,12260.00
2018-04-20T08:03:05.403Z,12264.00
2018-04-20T08:04:05.354Z,12256.00
2018-04-20T08:05:05.242Z,12256.00
2018-04-20T08:06:05.268Z,12276.00
2018-04-20T08:07:05.208Z,12344.00
2018-04-20T08:08:05.111Z,12372.00
2018-04-20T08:09:04.963Z,12384.00
2018-04-20T08:10:05.071Z,12408.00
2018-04-20T08:11:04.820Z,12440.00
2018-04-20T08:12:04.793Z,12500.00
2018-04-20T08:13:04.700Z,12528.00
2018-04-20T08:14:04.689Z,12552.00
2018-04-20T08:15:04.560Z,12572.00
2018-04-20T08:16:04.620Z,12588.00
2018-04-20T08:17:04.413Z,12648.00
2018-04-20T08:18:04.454Z,12688.00
2018-04-20T08:19:04.277Z,12704.00
2018-04-20T08:20:04.380Z,12740.00
2018-04-20T08:21:04.111Z,12748.00
2018-04-20T08:22:04.136Z,12796.00
2018-04-20T08:23:03.976Z,12832.00
2018-04-20T08:24:03.973Z,12868.00
2018-04-20T08:25:03.842Z,12864.00
2018-04-20T08:26:03.850Z,12912.00
2018-04-20T08:27:03.709Z,12952.00
2018-04-20T08:28:03.762Z,13032.00
2018-04-20T08:29:03.609Z,13036.00
2018-04-20T08:30:03.567Z,13084.00
2018-04-20T08:31:03.467Z,13160.00
2018-04-20T08:32:03.508Z,13188.00
2018-04-20T08:33:03.286Z,13268.00
2018-04-20T08:34:03.324Z,13328.00
2018-04-20T08:35:03.147Z,13344.00
2018-04-20T08:36:03.200Z,13424.00
2018-04-20T08:37:03.018Z,13468.00
2018-04-20T08:38:03.034Z,13544.00
2018-04-20T08:39:02.899Z,13644.00
2018-04-20T08:40:02.921Z,13648.00
2018-04-20T08:41:02.729Z,13644.00
2018-04-20T08:42:02.761Z,13660.00
2018-04-20T08:43:02.671Z,13688.00
2018-04-20T08:44:02.662Z,13584.00
2018-04-20T08:45:02.459Z,13548.00
2018-04-20T08:46:02.451Z,13456.00
2018-04-20T08:47:02.317Z,13484.00
2018-04-20T08:48:02.351Z,13544.00
2018-04-20T08:49:02.228Z,13628.00
2018-04-20T08:50:02.212Z,13576.00
2018-04-20T08:51:02.044Z,13448.00
2018-04-20T08:52:02.720Z,13600.00
2018-04-20T08:53:01.901Z,13580.00
2018-04-20T08:54:01.910Z,13624.00
2018-04-20T08:55:01.775Z,13532.00
2018-04-20T08:56:01.812Z,13444.00
2018-04-20T08:57:01.646Z,13480.00
2018-04-20T08:58:01.647Z,13584.00
2018-04-20T08:59:01.534Z,13752.00
2018-04-20T09:00:01.490Z,13816.00
2018-04-20T09:01:01.390Z,13636.00
2018-04-20T09:02:01.321Z,13716.00
2018-04-20T09:03:01.256Z,13632.00
2018-04-20T09:04:01.272Z,13896.00
2018-04-20T09:05:01.103Z,13984.00
2018-04-20T09:06:01.050Z,13968.00
2018-04-20T09:07:00.960Z,13988.00
2018-04-20T09:08:00.947Z,14064.00
2018-04-20T09:09:00.826Z,14008.00
2018-04-20T09:10:00.903Z,14048.00
2018-04-20T09:11:00.706Z,14088.00
2018-04-20T09:12:00.667Z,14124.00
2018-04-20T09:13:00.562Z,14184.00
2018-04-20T09:14:00.519Z,14204.00
2018-04-20T09:15:00.423Z,14244.00
2018-04-20T09:16:00.430Z,14256.00
2018-04-20T09:17:00.292Z,14320.00
2018-04-20T09:18:00.303Z,14372.00
2018-04-20T09:19:00.185Z,14400.00
2018-04-20T09:20:00.258Z,14448.00
2018-04-20T09:21:00.066Z,14544.00
2018-04-20T09:22:00.019Z,14596.00
2018-04-20T09:22:59.896Z,14164.00
2018-04-20T09:23:59.853Z,14672.00
2018-04-20T09:24:59.893Z,14696.00
2018-04-20T09:25:59.768Z,14736.00
2018-04-20T09:26:59.649Z,14752.00
2018-04-20T09:27:59.663Z,14780.00
2018-04-20T09:28:59.522Z,14856.00
2018-04-20T09:29:59.560Z,14860.00
2018-04-20T09:30:59.375Z,14996.00
2018-04-20T09:31:59.424Z,15100.00
2018-04-20T09:32:59.252Z,15124.00
2018-04-20T09:33:59.288Z,15312.00
2018-04-20T09:34:59.170Z,15552.00
2018-04-20T09:35:59.125Z,15616.00
2018-04-20T09:36:59.033Z,15712.00
2018-04-20T09:37:59.012Z,15616.00
2018-04-20T09:38:58.865Z,15712.00
2018-04-20T09:39:58.902Z,15776.00
2018-04-20T09:40:58.812Z,15648.00
2018-04-20T09:41:58.758Z,15648.00
2018-04-20T09:42:58.626Z,15744.00
2018-04-20T09:43:58.636Z,15776.00
2018-04-20T09:44:58.484Z,15872.00
2018-04-20T09:45:58.547Z,16000.00
2018-04-20T09:46:58.388Z,16128.00
2018-04-20T09:47:58.354Z,16224.00
2018-04-20T09:48:58.251Z,16160.00
2018-04-20T09:49:59.233Z,16096.00
2018-04-20T09:50:58.140Z,16320.00
2018-04-20T09:51:58.098Z,16192.00
2018-04-20T09:52:58.081Z,16320.00
2018-04-20T09:53:57.946Z,16512.00
2018-04-20T09:54:57.850Z,16640.00
2018-04-20T09:55:57.885Z,16608.00
2018-04-20T09:56:58.285Z,16800.00
2018-04-20T09:57:58.954Z,17056.00
2018-04-20T09:58:58.331Z,17024.00
2018-04-20T09:59:57.737Z,17056.00
2018-04-20T10:00:57.472Z,17248.00
2018-04-20T10:01:57.531Z,17248.00
2018-04-20T10:02:57.359Z,17248.00
2018-04-20T10:03:57.326Z,17376.00
2018-04-20T10:04:57.228Z,17472.00
2018-04-20T10:05:57.230Z,17504.00
2018-04-20T10:06:57.110Z,17472.00
2018-04-20T10:07:57.219Z,17504.00
2018-04-20T10:08:57.035Z,17632.00
2018-04-20T10:09:57.072Z,17920.00
2018-04-20T10:10:56.955Z,18016.00
2018-04-20T10:11:56.863Z,18144.00
2018-04-20T10:12:56.791Z,18304.00
2018-04-20T10:13:56.787Z,18528.00
2018-04-20T10:14:56.603Z,18784.00
2018-04-20T10:15:56.595Z,18848.00
2018-04-20T10:16:56.468Z,18944.00
2018-04-20T10:17:56.560Z,19136.00
2018-04-20T10:18:56.340Z,19328.00
2018-04-20T10:19:56.472Z,19520.00
2018-04-20T10:20:56.217Z,19680.00
2018-04-20T10:21:56.212Z,19744.00
2018-04-20T10:22:56.128Z,19936.00
2018-04-20T10:23:56.127Z,20064.00
2018-04-20T10:24:56.041Z,20224.00
2018-04-20T10:25:56.051Z,20512.00
2018-04-20T10:26:55.842Z,20672.00
2018-04-20T10:27:55.883Z,20896.00
2018-04-20T10:28:55.732Z,21056.00
2018-04-20T10:29:55.763Z,21248.00
2018-04-20T10:30:55.601Z,21440.00
2018-04-20T10:31:55.674Z,21760.00
2018-04-20T10:32:55.552Z,22048.00
2018-04-20T10:33:55.885Z,22240.00
2018-04-20T10:34:55.400Z,22528.00
2018-04-20T10:35:56.107Z,22752.00
2018-04-20T10:36:55.225Z,22912.00
2018-04-20T10:37:55.464Z,23360.00
2018-04-20T10:38:55.161Z,31616.00
2018-04-20T10:39:55.112Z,61344.00
2018-04-20T10:40:54.995Z,96864.00
2018-04-20T10:41:55.091Z,118176.00
2018-04-20T10:42:54.878Z,120576.00
2018-04-20T10:43:54.935Z,112640.00
2018-04-20T10:44:54.733Z,103136.00
2018-04-20T10:45:54.746Z,99168.00
2018-04-20T10:46:54.605Z,98368.00
2018-04-20T10:47:54.641Z,96224.00
2018-04-20T10:48:54.525Z,95872.00
2018-04-20T10:49:54.560Z,96288.00
2018-04-20T10:50:54.545Z,94144.00
2018-04-20T10:51:54.371Z,91488.00
2018-04-20T10:52:54.232Z,89248.00
2018-04-20T10:53:54.304Z,88384.00
2018-04-20T10:54:54.115Z,87392.00
2018-04-20T10:55:54.181Z,88384.00
2018-04-20T10:56:54.061Z,88736.00
2018-04-20T10:57:54.005Z,89216.00
2018-04-20T10:58:53.901Z,88416.00
2018-04-20T10:59:53.933Z,90400.00
2018-04-20T11:00:53.756Z,89408.00
2018-04-20T11:01:53.834Z,89888.00
2018-04-20T11:02:53.681Z,92608.00
2018-04-20T11:03:53.651Z,92608.00
2018-04-20T11:04:53.546Z,91744.00
2018-04-20T11:05:53.539Z,91264.00
2018-04-20T11:06:53.645Z,92160.00
2018-04-20T11:07:53.446Z,91104.00
2018-04-20T11:08:53.291Z,91776.00
2018-04-20T11:09:53.296Z,90176.00
2018-04-20T11:10:53.344Z,91296.00
2018-04-20T11:11:53.629Z,90496.00
2018-04-20T11:12:53.036Z,91712.00
2018-04-20T11:13:53.111Z,90272.00
2018-04-20T11:14:52.948Z,88800.00
2018-04-20T11:15:52.997Z,89184.00
2018-04-20T11:16:52.828Z,88160.00
2018-04-20T11:17:52.806Z,89920.00
2018-04-20T11:18:52.699Z,89120.00
2018-04-20T11:19:52.748Z,92064.00
2018-04-20T11:20:52.594Z,93056.00
2018-04-20T11:21:52.676Z,91552.00
2018-04-20T11:22:52.479Z,95296.00
2018-04-20T11:23:52.419Z,95904.00
2018-04-20T11:24:52.359Z,95744.00
2018-04-20T11:25:52.379Z,92896.00
2018-04-20T11:26:52.256Z,92448.00
2018-04-20T11:27:52.252Z,90112.00
2018-04-20T11:28:52.093Z,89344.00
2018-04-20T11:29:52.161Z,88256.00
2018-04-20T11:30:51.970Z,86848.00
2018-04-20T11:31:52.013Z,88096.00
2018-04-20T11:32:51.867Z,90144.00
2018-04-20T11:33:51.936Z,92896.00
2018-04-20T11:34:51.741Z,94592.00
2018-04-20T11:35:51.830Z,93312.00
2018-04-20T11:36:51.623Z,93216.00
2018-04-20T11:37:51.649Z,93216.00
2018-04-20T11:38:51.500Z,93888.00
2018-04-20T11:39:51.523Z,96000.00
2018-04-20T11:40:51.418Z,94752.00
2018-04-20T11:41:51.418Z,92192.00
2018-04-20T11:42:51.282Z,92896.00
2018-04-20T11:43:51.329Z,93984.00
2018-04-20T11:44:51.152Z,96160.00
2018-04-20T11:45:51.176Z,95840.00
2018-04-20T11:46:51.045Z,96384.00
2018-04-20T11:47:51.044Z,98080.00
2018-04-20T11:48:50.909Z,93888.00
2018-04-20T11:49:51.033Z,95296.00
2018-04-20T11:50:50.808Z,96096.00
2018-04-20T11:51:51.266Z,97824.00
2018-04-20T11:52:50.695Z,97728.00
2018-04-20T11:53:50.691Z,95136.00
2018-04-20T11:54:50.573Z,97184.00
2018-04-20T11:55:50.618Z,96640.00
2018-04-20T11:56:50.437Z,96768.00
2018-04-20T11:57:50.504Z,94400.00
2018-04-20T11:58:50.330Z,92160.00
2018-04-20T11:59:50.318Z,86688.00
2018-04-20T12:00:50.303Z,54144.00
2018-04-20T12:01:50.234Z,13444.00
2018-04-20T12:02:50.081Z,7564.00
2018-04-20T12:03:50.144Z,7368.00
2018-04-20T12:04:49.959Z,7316.00
2018-04-20T12:05:49.940Z,7252.00
2018-04-20T12:06:49.869Z,7188.00
2018-04-20T12:07:49.976Z,7136.00
2018-04-20T12:08:49.731Z,7068.00
2018-04-20T12:09:49.763Z,7016.00
2018-04-20T12:10:49.589Z,6980.00
2018-04-20T12:11:49.599Z,6948.00
2018-04-20T12:12:49.508Z,6900.00
2018-04-20T12:13:49.475Z,6844.00
2018-04-20T12:14:49.333Z,6788.00
2018-04-20T12:15:49.394Z,6736.00
2018-04-20T12:16:49.212Z,6692.00
2018-04-20T12:17:49.247Z,6644.00
2018-04-20T12:18:49.082Z,6608.00
2018-04-20T12:19:49.113Z,6572.00
2018-04-20T12:20:48.949Z,6536.00
2018-04-20T12:21:49.030Z,6500.00
2018-04-20T12:22:48.820Z,6464.00